KMSS/MSS METAR and TAF weather

Enter ICAO airport designator
Station Type Date Time Source
KMSS METAR 2021/03/06 03:53 UTC NOAA

KMSS 060353Z AUTO 23005KT 10SM OVC060 M12/M19 A2999 RMK AO2 SLP165 T11171189


Station Type Date Time Source
KMSS Decoded METAR 2021/03/06 03:53 UTC NOAA

MASSENA INTERNATIONAL -RICHARDS FLD, NY, United States (KMSS) 44-56N 074-51W 66M
Mar 05, 2021 - 10:53 PM EST / 2021.03.06 0353 UTC
Wind: from the SW (230 degrees) at 6 MPH (5 KT):0
Visibility: 10 mile(s):0
Sky conditions: overcast
Temperature: 10.9 F (-11.7 C)
Windchill: 1 F (-17 C):1
Dew Point: -2.0 F (-18.9 C)
Relative Humidity: 55%
Pressure (altimeter): 29.99 in. Hg (1015 hPa)
ob: KMSS 060353Z AUTO 23005KT 10SM OVC060 M12/M19 A2999 RMK AO2 SLP165 T11171189
cycle: 4

Station Type Date Time Source
KMSS TAF 2021/03/05 20:18 UTC NOAA

TAF
AMD KMSS 052015Z 0520/0618 27014G22KT P6SM SCT050 BKN070
FM052300 29010KT P6SM OVC040
FM061600 27011G17KT P6SM BKN027

Example: see airport list